Time;durP1;ratioP1;P1;durP2;ratioP2;P2;SDS_P1;SDS_P2;PMS_P1;PMS_P2;Temp;Humidity;BMP_temperature;BMP_pressure;BME280_temperature;BME280_humidity;BME280_pressure;Samples;Min_cycle;Max_cycle;Signal;HPM_P1;HPM_P2
2022/08/30 00:01:03;;;;;;;3.10;1.90;;;16.90;99.90;;;;;;5032821;28;20033;-37
2022/08/30 00:03:44;;;;;;;4.80;2.28;;;16.90;99.90;;;;;;5035943;28;20462;-38
2022/08/30 00:06:11;;;;;;;6.60;2.28;;;16.90;99.90;;;;;;5041314;28;20134;-37
2022/08/30 00:08:39;;;;;;;3.58;2.00;;;16.90;99.90;;;;;;5033745;28;20048;-38
2022/08/30 00:11:08;;;;;;;3.33;1.88;;;16.80;99.90;;;;;;5033115;28;20087;-46
2022/08/30 00:13:39;;;;;;;3.38;2.05;;;16.80;99.90;;;;;;5037209;28;20119;-37
2022/08/30 00:16:05;;;;;;;3.25;1.55;;;16.80;99.90;;;;;;5031367;28;20045;-36
2022/08/30 00:18:32;;;;;;;5.18;2.60;;;16.80;99.90;;;;;;5037150;28;20037;-37
2022/08/30 00:20:58;;;;;;;4.88;1.90;;;16.80;99.90;;;;;;5037702;28;20466;-37
2022/08/30 00:23:24;;;;;;;4.05;2.40;;;16.80;99.90;;;;;;5031498;28;20057;-36
2022/08/30 00:25:51;;;;;;;6.35;2.58;;;16.80;99.90;;;;;;5036534;28;20402;-37
2022/08/30 00:28:17;;;;;;;4.93;3.42;;;16.70;99.90;;;;;;5034171;28;20033;-36
2022/08/30 00:30:44;;;;;;;5.30;1.88;;;16.70;99.90;;;;;;5038720;28;20033;-37
2022/08/30 00:33:10;;;;;;;3.00;1.80;;;16.70;99.90;;;;;;5032992;28;20120;-36
2022/08/30 00:35:37;;;;;;;4.78;2.58;;;16.60;99.90;;;;;;5043827;28;20041;-36
2022/08/30 00:38:03;;;;;;;5.60;2.05;;;16.60;99.90;;;;;;5046239;28;20037;-36
2022/08/30 00:40:29;;;;;;;6.72;2.80;;;16.50;99.90;;;;;;5044932;28;20486;-37
2022/08/30 00:42:58;;;;;;;3.60;2.03;;;16.50;99.90;;;;;;5049085;28;20045;-37
2022/08/30 00:45:32;;;;;;;4.70;2.55;;;16.50;99.90;;;;;;5041447;28;20107;-37
2022/08/30 00:47:59;;;;;;;3.75;2.40;;;16.40;99.90;;;;;;5045597;28;20037;-36
2022/08/30 00:50:29;;;;;;;4.18;2.63;;;16.40;99.90;;;;;;5046331;28;20674;-37
2022/08/30 00:52:58;;;;;;;5.88;2.53;;;16.30;99.90;;;;;;5044846;28;20059;-37
2022/08/30 00:55:25;;;;;;;4.25;2.53;;;16.20;99.90;;;;;;5044067;28;20045;-37
2022/08/30 00:57:55;;;;;;;3.78;2.35;;;16.20;99.90;;;;;;5042794;28;20502;-37
2022/08/30 01:00:20;;;;;;;5.25;2.22;;;16.20;99.90;;;;;;5040285;28;20124;-37
2022/08/30 01:02:47;;;;;;;3.72;2.03;;;16.20;99.90;;;;;;5043957;28;20131;-37
2022/08/30 01:05:14;;;;;;;4.82;2.60;;;16.10;99.90;;;;;;5047377;28;20479;-37
2022/08/30 01:07:40;;;;;;;9.02;2.90;;;16.10;99.90;;;;;;5045689;28;20514;-37
2022/08/30 01:10:08;;;;;;;4.93;2.20;;;16.10;99.90;;;;;;5047273;28;20045;-37
2022/08/30 01:12:36;;;;;;;5.18;3.05;;;16.10;99.90;;;;;;5042288;28;20044;-37
2022/08/30 01:15:04;;;;;;;4.45;2.40;;;16.00;99.90;;;;;;5043259;28;20128;-37
2022/08/30 01:17:30;;;;;;;4.65;2.60;;;16.00;99.90;;;;;;5043418;28;20450;-36
2022/08/30 01:20:10;;;;;;;5.05;2.65;;;16.00;99.90;;;;;;5039774;28;20045;-37
2022/08/30 01:22:45;;;;;;;3.67;2.53;;;15.90;99.90;;;;;;5045130;28;20151;-37
2022/08/30 01:25:12;;;;;;;5.75;2.70;;;15.90;99.90;;;;;;5036894;28;20047;-36
2022/08/30 01:27:42;;;;;;;6.10;2.58;;;15.90;99.90;;;;;;5046132;28;20052;-37
2022/08/30 01:30:08;;;;;;;5.25;2.20;;;15.90;99.90;;;;;;5038829;28;20037;-37
2022/08/30 01:32:39;;;;;;;4.40;2.92;;;15.90;99.90;;;;;;5044315;28;20045;-36
2022/08/30 01:35:06;;;;;;;5.13;2.67;;;15.80;99.90;;;;;;5048497;28;20502;-37
2022/08/30 01:37:33;;;;;;;5.97;2.63;;;15.80;99.90;;;;;;5044205;28;20046;-37
2022/08/30 01:39:59;;;;;;;5.00;2.42;;;15.80;99.90;;;;;;5040137;28;20487;-38
2022/08/30 01:42:26;;;;;;;4.72;2.35;;;15.80;99.90;;;;;;5041814;28;20048;-37
2022/08/30 01:44:52;;;;;;;4.28;2.67;;;15.80;99.90;;;;;;5038334;28;20033;-37
2022/08/30 01:47:18;;;;;;;6.68;2.88;;;15.70;99.90;;;;;;5036935;28;20494;-37
2022/08/30 01:49:46;;;;;;;6.50;2.10;;;15.70;99.90;;;;;;5041285;28;20037;-37
2022/08/30 01:52:12;;;;;;;5.10;2.78;;;15.70;99.90;;;;;;5038347;28;20120;-37
2022/08/30 01:54:41;;;;;;;3.70;2.28;;;15.70;99.90;;;;;;5039336;28;20048;-37
2022/08/30 01:57:09;;;;;;;4.75;1.85;;;15.60;99.90;;;;;;5042970;28;20041;-37
2022/08/30 01:59:35;;;;;;;3.03;1.95;;;15.60;99.90;;;;;;5043408;28;20155;-37
2022/08/30 02:02:02;;;;;;;5.80;2.80;;;15.60;99.90;;;;;;5034661;28;20368;-36
2022/08/30 02:04:28;;;;;;;3.38;1.98;;;15.60;99.90;;;;;;5040745;28;20164;-37
2022/08/30 02:06:54;;;;;;;3.63;2.05;;;15.60;99.90;;;;;;5037532;28;20859;-37
2022/08/30 02:09:20;;;;;;;4.03;2.65;;;15.50;99.90;;;;;;5041277;28;20076;-37
2022/08/30 02:11:47;;;;;;;4.18;3.00;;;15.50;99.90;;;;;;5039586;28;20069;-36
2022/08/30 02:14:13;;;;;;;3.58;2.35;;;15.50;99.90;;;;;;5036428;28;20041;-37
2022/08/30 02:16:39;;;;;;;3.55;2.17;;;15.50;99.90;;;;;;5039682;28;20044;-37
2022/08/30 02:19:06;;;;;;;4.93;2.42;;;15.50;99.90;;;;;;5040150;28;20406;-36
2022/08/30 02:21:32;;;;;;;4.60;2.95;;;15.40;99.90;;;;;;5044359;28;20057;-37
2022/08/30 02:23:58;;;;;;;7.38;2.50;;;15.40;99.90;;;;;;5039896;28;20073;-36
2022/08/30 02:26:25;;;;;;;6.05;2.40;;;15.40;99.90;;;;;;5041410;28;20907;-36
2022/08/30 02:28:51;;;;;;;4.50;2.72;;;15.40;99.90;;;;;;5036341;28;20518;-36
2022/08/30 02:31:18;;;;;;;5.60;2.88;;;15.30;99.90;;;;;;5035656;28;20046;-36
2022/08/30 02:33:44;;;;;;;3.63;2.33;;;15.40;99.90;;;;;;5034490;28;20123;-36
2022/08/30 02:36:10;;;;;;;3.75;2.47;;;15.40;99.90;;;;;;5042998;28;20075;-36
2022/08/30 02:38:36;;;;;;;3.72;2.50;;;15.40;99.90;;;;;;5044315;28;20052;-37
2022/08/30 02:41:02;;;;;;;4.03;2.50;;;15.40;99.90;;;;;;5036464;28;20037;-36
2022/08/30 02:43:27;;;;;;;3.85;2.00;;;15.40;99.90;;;;;;5034676;28;20037;-37
2022/08/30 02:45:53;;;;;;;5.43;2.42;;;15.30;99.90;;;;;;5042315;28;20037;-37
2022/08/30 02:48:19;;;;;;;3.78;2.17;;;15.30;99.90;;;;;;5038329;28;20494;-36
2022/08/30 02:50:49;;;;;;;5.20;2.55;;;15.30;99.90;;;;;;5037621;28;20033;-36
2022/08/30 02:53:15;;;;;;;4.55;2.65;;;15.20;99.90;;;;;;5037189;28;20576;-37
2022/08/30 02:55:41;;;;;;;3.45;2.03;;;15.20;99.90;;;;;;5040521;28;20077;-36
2022/08/30 02:58:09;;;;;;;4.93;2.03;;;15.20;99.90;;;;;;5034040;28;20060;-49
2022/08/30 03:00:35;;;;;;;5.93;2.17;;;15.20;99.90;;;;;;5037729;28;20050;-36
2022/08/30 03:03:02;;;;;;;7.57;2.55;;;15.20;99.90;;;;;;5045476;28;20059;-36
2022/08/30 03:05:29;;;;;;;5.72;2.80;;;15.10;99.90;;;;;;5042440;28;20576;-37
2022/08/30 03:07:55;;;;;;;4.28;2.20;;;15.10;99.90;;;;;;5037084;28;20498;-37
2022/08/30 03:10:21;;;;;;;5.13;2.40;;;15.10;99.90;;;;;;5035625;28;20033;-36
2022/08/30 03:12:47;;;;;;;3.90;2.05;;;15.10;99.90;;;;;;5036833;28;20126;-37
2022/08/30 03:15:14;;;;;;;3.22;1.95;;;15.10;99.90;;;;;;5031991;28;20430;-36
2022/08/30 03:17:40;;;;;;;3.20;2.00;;;15.10;99.90;;;;;;5037118;28;20033;-36
2022/08/30 03:20:08;;;;;;;5.82;2.90;;;15.10;99.90;;;;;;5042063;28;20047;-37
2022/08/30 03:22:34;;;;;;;3.88;2.38;;;15.00;99.90;;;;;;5037383;28;20621;-36
2022/08/30 03:25:00;;;;;;;4.20;2.50;;;15.00;99.90;;;;;;5041997;28;20095;-37
2022/08/30 03:27:27;;;;;;;5.05;2.90;;;15.00;99.90;;;;;;5037662;28;20048;-37
2022/08/30 03:29:53;;;;;;;4.53;1.88;;;15.00;99.90;;;;;;5047205;28;20502;-37
2022/08/30 03:32:19;;;;;;;3.80;2.35;;;15.00;99.90;;;;;;5039439;28;20095;-37
2022/08/30 03:34:45;;;;;;;4.60;2.47;;;15.00;99.90;;;;;;5034765;28;20041;-37
2022/08/30 03:37:10;;;;;;;3.97;2.10;;;15.00;99.90;;;;;;5041003;28;20033;-38
2022/08/30 03:39:36;;;;;;;3.00;1.85;;;15.00;99.90;;;;;;5037849;28;20034;-37
2022/08/30 03:42:02;;;;;;;4.72;2.72;;;14.90;99.90;;;;;;5037103;28;20029;-37
2022/08/30 03:44:28;;;;;;;4.47;2.70;;;14.90;99.90;;;;;;5045789;28;20098;-37
2022/08/30 03:46:53;;;;;;;3.95;2.22;;;14.90;99.90;;;;;;5037521;28;20080;-37
2022/08/30 03:49:19;;;;;;;4.25;2.67;;;14.90;99.90;;;;;;5037674;28;20187;-36
2022/08/30 03:51:47;;;;;;;4.38;2.30;;;14.80;99.90;;;;;;5034190;28;20045;-36
2022/08/30 03:54:13;;;;;;;3.85;2.30;;;14.80;99.90;;;;;;5035048;28;20038;-37
2022/08/30 03:56:39;;;;;;;4.45;2.80;;;14.80;99.90;;;;;;5036371;28;20045;-36
2022/08/30 03:59:05;;;;;;;3.90;2.20;;;14.70;99.90;;;;;;5037127;28;20083;-35
2022/08/30 04:01:31;;;;;;;5.93;2.83;;;14.70;99.90;;;;;;5036024;28;20762;-36
2022/08/30 04:03:57;;;;;;;6.75;2.92;;;14.70;99.90;;;;;;5039819;28;20120;-37
2022/08/30 04:06:23;;;;;;;3.40;2.30;;;14.70;99.90;;;;;;5034820;28;20033;-36
2022/08/30 04:08:48;;;;;;;4.28;2.33;;;14.70;99.90;;;;;;5037736;28;20032;-38
2022/08/30 04:11:15;;;;;;;6.25;3.10;;;14.70;99.90;;;;;;5037692;28;20483;-37
2022/08/30 04:13:41;;;;;;;5.40;2.83;;;14.70;99.90;;;;;;5037186;28;20099;-37
2022/08/30 04:16:07;;;;;;;3.47;2.28;;;14.60;99.90;;;;;;5037039;28;20541;-37
2022/08/30 04:18:34;;;;;;;4.70;2.78;;;14.60;99.90;;;;;;5045164;28;20037;-36
2022/08/30 04:21:00;;;;;;;4.38;2.60;;;14.60;99.90;;;;;;5035978;28;20090;-35
2022/08/30 04:23:27;;;;;;;5.60;2.72;;;14.60;99.90;;;;;;5038079;28;20057;-36
2022/08/30 04:25:54;;;;;;;4.13;2.90;;;14.70;99.90;;;;;;5038430;28;20156;-37
2022/08/30 04:28:20;;;;;;;4.00;2.80;;;14.70;99.90;;;;;;5035863;28;20088;-37
2022/08/30 04:30:46;;;;;;;4.57;2.65;;;14.70;99.90;;;;;;5039867;28;20625;-36
2022/08/30 04:33:14;;;;;;;7.47;3.10;;;14.70;99.90;;;;;;5040161;28;20116;-36
2022/08/30 04:35:44;;;;;;;3.85;2.40;;;14.80;99.90;;;;;;5043038;28;20045;-36
2022/08/30 04:38:12;;;;;;;5.00;2.88;;;14.80;99.90;;;;;;5038465;28;20527;-37
2022/08/30 04:40:41;;;;;;;4.80;2.78;;;14.70;99.90;;;;;;5038709;28;20041;-36
2022/08/30 04:43:06;;;;;;;5.03;3.05;;;14.70;99.90;;;;;;5031349;28;20183;-36
2022/08/30 04:45:32;;;;;;;5.07;2.92;;;14.70;99.90;;;;;;5036943;28;20132;-36
2022/08/30 04:47:58;;;;;;;6.22;2.33;;;14.60;99.90;;;;;;5032215;28;20037;-36
2022/08/30 04:50:24;;;;;;;4.60;2.70;;;14.60;99.90;;;;;;5031035;28;20142;-36
2022/08/30 04:52:49;;;;;;;5.18;2.47;;;14.50;99.90;;;;;;5034366;28;20405;-39
2022/08/30 04:55:16;;;;;;;6.63;3.28;;;14.50;99.90;;;;;;5032193;28;20036;-36
2022/08/30 04:57:42;;;;;;;4.72;2.20;;;14.50;99.90;;;;;;5035767;28;20195;-36
2022/08/30 05:00:11;;;;;;;4.22;3.00;;;14.50;99.90;;;;;;5032288;28;20120;-36
2022/08/30 05:02:39;;;;;;;5.53;3.13;;;14.50;99.90;;;;;;5038420;28;20050;-36
2022/08/30 05:07:49;;;;;;;4.18;2.40;;;14.40;99.90;;;;;;5038251;28;20072;-35
2022/08/30 05:10:15;;;;;;;5.00;2.90;;;14.40;99.90;;;;;;5034253;28;20045;-35
2022/08/30 05:12:42;;;;;;;5.82;2.88;;;14.40;99.90;;;;;;5033778;28;20483;-35
2022/08/30 05:15:09;;;;;;;5.25;2.75;;;14.40;99.90;;;;;;5040131;28;20036;-36
2022/08/30 05:17:36;;;;;;;3.83;2.88;;;14.40;99.90;;;;;;5038291;28;20086;-35
2022/08/30 05:20:03;;;;;;;4.60;2.88;;;14.40;99.90;;;;;;5040520;28;20041;-36
2022/08/30 05:22:29;;;;;;;4.63;2.78;;;14.30;99.90;;;;;;5033384;28;20499;-36
2022/08/30 05:24:54;;;;;;;5.57;3.20;;;14.40;99.90;;;;;;5049078;28;20056;-37
2022/08/30 05:27:20;;;;;;;7.47;3.15;;;14.40;99.90;;;;;;5034154;28;20037;-36
2022/08/30 05:29:46;;;;;;;7.90;2.85;;;14.40;99.90;;;;;;5044260;28;20450;-37
2022/08/30 05:32:12;;;;;;;5.30;2.35;;;14.40;99.90;;;;;;5039347;28;20092;-36
2022/08/30 05:34:37;;;;;;;7.50;2.75;;;14.40;99.90;;;;;;5043477;28;20124;-37
2022/08/30 05:37:03;;;;;;;5.18;2.97;;;14.40;99.90;;;;;;5043746;28;20132;-37
2022/08/30 05:39:29;;;;;;;3.95;2.63;;;14.40;99.90;;;;;;5040920;28;20039;-36
2022/08/30 05:41:56;;;;;;;7.15;2.90;;;14.40;99.90;;;;;;5040476;28;20104;-37
2022/08/30 05:44:22;;;;;;;6.18;2.58;;;14.40;99.90;;;;;;5039589;28;20084;-35
2022/08/30 05:46:48;;;;;;;4.88;2.63;;;14.50;99.90;;;;;;5043204;28;20106;-37
2022/08/30 05:49:14;;;;;;;5.53;2.55;;;14.50;99.90;;;;;;5038570;28;20045;-37
2022/08/30 05:51:39;;;;;;;4.65;2.67;;;14.50;99.90;;;;;;5036064;28;20052;-38
2022/08/30 05:54:05;;;;;;;3.65;2.20;;;14.50;99.90;;;;;;5034323;28;20037;-37
2022/08/30 05:56:36;;;;;;;4.15;2.45;;;14.60;99.90;;;;;;5039555;28;20063;-37
2022/08/30 05:59:04;;;;;;;4.63;2.75;;;14.70;99.90;;;;;;5039679;28;20042;-36
2022/08/30 06:01:32;;;;;;;7.15;2.60;;;14.70;99.90;;;;;;5039806;28;20083;-35
2022/08/30 06:04:00;;;;;;;9.25;2.88;;;14.80;99.90;;;;;;5042184;28;20033;-36
2022/08/30 06:06:27;;;;;;;3.47;1.92;;;14.80;99.90;;;;;;5043104;28;20040;-37
2022/08/30 06:08:53;;;;;;;4.93;2.90;;;14.90;99.90;;;;;;5041323;28;20517;-37
2022/08/30 06:11:22;;;;;;;5.05;3.20;;;15.00;99.90;;;;;;5037197;28;20037;-36
2022/08/30 06:13:49;;;;;;;5.38;2.72;;;15.00;99.90;;;;;;5043520;28;20040;-36
2022/08/30 06:16:17;;;;;;;4.70;2.88;;;15.10;99.90;;;;;;5040096;28;20032;-47
2022/08/30 06:18:42;;;;;;;6.35;2.58;;;15.10;99.90;;;;;;5049218;28;20076;-34
2022/08/30 06:21:14;;;;;;;4.60;2.42;;;15.20;99.90;;;;;;5047823;28;20506;-35
2022/08/30 06:23:41;;;;;;;5.10;2.60;;;15.20;99.90;;;;;;5044540;28;20463;-34
2022/08/30 06:26:07;;;;;;;3.85;2.22;;;15.20;99.90;;;;;;5044844;28;20055;-34
2022/08/30 06:28:33;;;;;;;4.65;1.75;;;15.30;99.90;;;;;;5042836;28;20059;-35
2022/08/30 06:30:59;;;;;;;3.88;2.13;;;15.40;99.90;;;;;;5042008;28;20518;-35
2022/08/30 06:33:24;;;;;;;2.85;2.00;;;15.40;99.90;;;;;;5040880;28;20033;-34
2022/08/30 06:35:50;;;;;;;5.00;2.17;;;15.50;99.90;;;;;;5048119;28;20041;-36
2022/08/30 06:38:16;;;;;;;5.20;2.22;;;15.50;99.90;;;;;;5040439;28;20037;-38
2022/08/30 06:40:42;;;;;;;4.65;2.60;;;15.60;99.90;;;;;;5045314;28;20127;-38
2022/08/30 06:43:07;;;;;;;4.68;2.30;;;15.60;99.90;;;;;;5043945;28;20339;-35
2022/08/30 06:45:34;;;;;;;4.25;2.00;;;15.70;99.90;;;;;;5036948;28;20060;-37
2022/08/30 06:48:00;;;;;;;4.00;2.15;;;15.80;99.90;;;;;;5039348;28;20119;-39
2022/08/30 06:50:26;;;;;;;4.60;2.03;;;15.80;99.90;;;;;;5042283;28;20033;-38
2022/08/30 06:52:51;;;;;;;4.18;2.30;;;15.80;99.90;;;;;;5044800;28;20047;-38
2022/08/30 06:55:17;;;;;;;4.38;1.83;;;15.90;99.90;;;;;;5042199;28;20032;-39
2022/08/30 06:57:44;;;;;;;6.00;2.00;;;15.90;99.90;;;;;;5045578;28;20033;-37
2022/08/30 07:00:13;;;;;;;4.00;2.30;;;16.00;99.90;;;;;;5041073;28;20041;-38
2022/08/30 07:02:39;;;;;;;4.78;1.95;;;16.10;99.90;;;;;;5042583;28;20045;-36
2022/08/30 07:05:06;;;;;;;3.42;1.80;;;16.20;99.90;;;;;;5037418;28;20091;-38
2022/08/30 07:07:32;;;;;;;4.72;2.00;;;16.20;99.90;;;;;;5046239;28;20041;-38
2022/08/30 07:10:00;;;;;;;6.22;2.15;;;16.30;99.90;;;;;;5036614;28;20041;-37
2022/08/30 07:12:25;;;;;;;2.88;1.80;;;16.40;99.90;;;;;;5044496;28;20114;-37
2022/08/30 07:14:51;;;;;;;3.88;1.85;;;16.50;99.90;;;;;;5037920;28;20060;-37
2022/08/30 07:20:04;;;;;;;5.57;2.08;;;16.60;99.90;;;;;;5038551;28;20127;-38
2022/08/30 07:22:32;;;;;;;4.22;1.73;;;16.70;99.90;;;;;;5040721;28;20503;-36
2022/08/30 07:24:58;;;;;;;3.33;2.05;;;16.80;99.90;;;;;;5037050;28;20083;-36
2022/08/30 07:27:23;;;;;;;4.65;1.67;;;16.90;99.90;;;;;;5042947;28;20088;-37
2022/08/30 07:29:49;;;;;;;2.83;1.40;;;16.90;99.90;;;;;;5036557;28;20033;-37
2022/08/30 07:32:15;;;;;;;3.47;1.40;;;17.00;99.90;;;;;;5042312;28;20447;-37
2022/08/30 07:34:41;;;;;;;3.17;1.58;;;17.10;99.90;;;;;;5032677;28;20380;-39
2022/08/30 07:37:07;;;;;;;3.55;1.27;;;17.20;99.90;;;;;;5037766;28;20167;-38
2022/08/30 07:39:32;;;;;;;2.85;1.25;;;17.30;99.90;;;;;;5038954;28;20065;-37
2022/08/30 07:41:58;;;;;;;2.03;0.93;;;17.40;99.90;;;;;;5044863;28;20502;-35
2022/08/30 07:44:23;;;;;;;4.18;1.17;;;17.50;99.90;;;;;;5036877;28;20030;-37
2022/08/30 07:46:49;;;;;;;3.47;1.05;;;17.60;99.90;;;;;;5034180;28;20123;-37
2022/08/30 07:49:15;;;;;;;2.85;0.98;;;17.70;99.90;;;;;;5039687;28;20067;-37
2022/08/30 07:51:41;;;;;;;3.08;1.10;;;17.70;99.90;;;;;;5039535;28;20076;-37
2022/08/30 07:54:07;;;;;;;1.30;0.70;;;17.80;99.90;;;;;;5038221;28;20038;-37
2022/08/30 07:56:33;;;;;;;3.20;0.70;;;17.80;99.90;;;;;;5034998;28;20029;-37
2022/08/30 07:58:59;;;;;;;2.78;0.70;;;17.90;99.90;;;;;;5032937;28;20037;-39
2022/08/30 08:01:25;;;;;;;1.30;0.70;;;18.00;99.90;;;;;;5036057;28;20490;-37
2022/08/30 08:03:51;;;;;;;2.70;0.60;;;18.10;99.90;;;;;;5039928;28;20559;-39
2022/08/30 08:06:19;;;;;;;4.90;0.70;;;18.20;99.90;;;;;;5036103;28;20034;-37
2022/08/30 08:08:45;;;;;;;1.92;0.45;;;18.30;99.90;;;;;;5037964;28;20046;-38
2022/08/30 08:11:20;;;;;;;2.90;0.60;;;18.40;99.90;;;;;;5034057;28;20039;-35
2022/08/30 08:13:47;;;;;;;2.33;0.40;;;18.40;99.90;;;;;;5038925;28;20390;-35
2022/08/30 08:16:13;;;;;;;1.30;0.50;;;18.50;99.90;;;;;;5040968;28;20041;-36
2022/08/30 08:18:39;;;;;;;3.22;0.50;;;18.60;99.50;;;;;;5040825;28;20108;-38
2022/08/30 08:21:05;;;;;;;1.35;0.40;;;18.70;99.10;;;;;;5038651;28;20057;-37
2022/08/30 08:23:30;;;;;;;1.35;0.50;;;18.80;98.20;;;;;;5044630;28;20094;-38
2022/08/30 08:25:56;;;;;;;1.60;0.50;;;18.90;97.70;;;;;;5038570;28;20171;-38
2022/08/30 08:28:23;;;;;;;1.00;0.50;;;19.00;96.80;;;;;;5039542;28;20492;-38
2022/08/30 08:30:49;;;;;;;1.88;0.60;;;19.10;96.20;;;;;;5036986;28;20037;-36
2022/08/30 08:33:16;;;;;;;1.98;0.50;;;19.20;95.40;;;;;;5036450;28;20767;-37
2022/08/30 08:35:42;;;;;;;3.25;0.55;;;19.30;95.40;;;;;;5037053;28;20032;-38
2022/08/30 08:38:07;;;;;;;4.07;0.70;;;19.40;94.80;;;;;;5035550;28;20037;-37
2022/08/30 08:40:57;;;;;;;1.52;0.40;;;19.50;94.30;;;;;;5032219;28;20470;-36
2022/08/30 08:43:25;;;;;;;2.65;0.68;;;19.60;93.20;;;;;;5033191;28;20536;-38
2022/08/30 08:46:20;;;;;;;2.05;0.50;;;19.60;92.90;;;;;;5033553;28;20033;-38
2022/08/30 08:48:50;;;;;;;2.97;0.73;;;19.80;91.60;;;;;;5042257;28;20048;-37
2022/08/30 08:54:09;;;;;;;2.67;0.60;;;19.90;92.10;;;;;;5040457;28;20045;-37
2022/08/30 08:56:36;;;;;;;1.40;0.50;;;20.00;91.60;;;;;;5038357;28;20124;-38
2022/08/30 08:59:06;;;;;;;1.60;0.55;;;20.10;90.70;;;;;;5038158;28;20037;-36
2022/08/30 09:01:32;;;;;;;1.50;0.60;;;20.10;89.60;;;;;;5040945;28;20107;-35
2022/08/30 09:04:04;;;;;;;1.85;0.52;;;20.20;88.90;;;;;;5039323;28;20053;-35
2022/08/30 09:06:51;;;;;;;1.77;0.60;;;20.30;88.30;;;;;;5041319;28;20116;-35
2022/08/30 09:09:22;;;;;;;1.95;0.70;;;20.30;87.70;;;;;;5043136;28;20573;-35
2022/08/30 09:11:48;;;;;;;3.07;0.60;;;20.40;87.40;;;;;;5039710;28;20049;-37
2022/08/30 09:14:37;;;;;;;5.90;0.60;;;20.50;87.10;;;;;;5032578;28;20041;-36
2022/08/30 09:17:06;;;;;;;6.45;0.60;;;20.60;86.50;;;;;;5043060;28;20033;-36
2022/08/30 09:19:52;;;;;;;3.80;0.70;;;20.70;86.70;;;;;;5047192;28;20044;-36
2022/08/30 09:22:20;;;;;;;1.30;0.52;;;20.70;85.80;;;;;;5039101;28;20053;-36
2022/08/30 09:24:49;;;;;;;1.00;0.57;;;20.80;86.00;;;;;;5038760;28;20124;-38
2022/08/30 09:27:23;;;;;;;2.55;0.52;;;20.90;85.70;;;;;;5040190;28;20522;-37
2022/08/30 09:29:51;;;;;;;1.52;0.70;;;20.90;84.20;;;;;;5046989;28;20532;-36
2022/08/30 09:32:27;;;;;;;2.05;0.52;;;21.00;82.90;;;;;;5042035;28;20049;-38
2022/08/30 09:34:52;;;;;;;1.10;0.50;;;21.10;79.70;;;;;;5039475;28;20047;-38
2022/08/30 09:37:32;;;;;;;3.28;0.60;;;21.20;80.20;;;;;;5037382;28;20115;-37
2022/08/30 09:39:58;;;;;;;2.55;0.55;;;21.30;79.60;;;;;;5037584;28;20119;-36
2022/08/30 09:42:28;;;;;;;2.25;0.65;;;21.30;79.20;;;;;;5040782;28;20510;-39
2022/08/30 09:45:09;;;;;;;1.63;0.57;;;21.50;79.80;;;;;;5036615;28;20045;-34
2022/08/30 09:47:37;;;;;;;1.05;0.40;;;21.60;79.30;;;;;;5042790;28;20053;-35
2022/08/30 09:50:07;;;;;;;3.17;0.63;;;21.60;77.60;;;;;;5039098;28;20112;-35
2022/08/30 09:52:33;;;;;;;3.65;0.60;;;21.70;76.10;;;;;;5038930;28;20033;-34
2022/08/30 09:55:13;;;;;;;3.33;0.75;;;21.80;76.20;;;;;;5036937;28;20375;-35
2022/08/30 09:58:07;;;;;;;1.00;0.50;;;21.80;75.50;;;;;;5042627;28;20049;-35
2022/08/30 10:00:46;;;;;;;3.28;0.60;;;21.90;71.50;;;;;;5033564;28;20056;-34
2022/08/30 10:03:47;;;;;;;2.75;0.55;;;21.90;70.90;;;;;;5035738;28;20045;-35
2022/08/30 10:06:35;;;;;;;1.35;0.30;;;21.90;70.40;;;;;;5038532;28;20060;-35
2022/08/30 10:09:09;;;;;;;1.90;0.43;;;22.00;70.80;;;;;;5041402;28;20087;-35
2022/08/30 10:11:42;;;;;;;2.08;0.63;;;22.00;68.50;;;;;;5039876;28;20046;-35
2022/08/30 10:14:35;;;;;;;1.10;0.57;;;22.10;69.60;;;;;;5034442;28;20056;-35
2022/08/30 10:17:19;;;;;;;3.00;0.75;;;22.10;69.10;;;;;;5033345;28;20556;-36
2022/08/30 10:20:20;;;;;;;1.88;0.50;;;22.20;69.70;;;;;;5038224;28;20099;-35
2022/08/30 10:22:51;;;;;;;1.50;0.60;;;22.30;67.80;;;;;;5041075;28;20159;-35
2022/08/30 10:25:29;;;;;;;2.10;0.43;;;22.50;66.30;;;;;;5034359;28;20495;-34
2022/08/30 10:28:20;;;;;;;1.60;0.50;;;22.60;65.00;;;;;;5038750;28;20073;-35
2022/08/30 10:30:56;;;;;;;1.38;0.50;;;22.60;63.70;;;;;;5044404;28;20045;-38
2022/08/30 10:33:51;;;;;;;3.20;0.40;;;22.70;61.20;;;;;;5038284;28;20037;-40
2022/08/30 10:36:20;;;;;;;4.68;0.70;;;22.70;59.00;;;;;;5032118;28;20383;-39
2022/08/30 10:38:49;;;;;;;1.83;0.70;;;22.70;62.00;;;;;;5043111;28;20044;-37
2022/08/30 10:41:23;;;;;;;1.52;0.50;;;22.80;60.50;;;;;;5037045;28;20495;-41
2022/08/30 10:44:18;;;;;;;1.10;0.47;;;22.80;59.90;;;;;;5038850;28;20081;-38
2022/08/30 10:47:08;;;;;;;1.90;0.40;;;22.90;59.50;;;;;;5038938;28;20739;-40
2022/08/30 10:49:39;;;;;;;2.90;0.40;;;23.00;59.50;;;;;;5039725;28;20029;-39
2022/08/30 10:52:22;;;;;;;1.23;0.50;;;23.10;58.80;;;;;;5040021;28;20411;-38
2022/08/30 10:55:21;;;;;;;1.85;0.60;;;23.30;55.00;;;;;;5044026;28;20499;-38
2022/08/30 10:57:48;;;;;;;1.83;0.60;;;23.40;52.40;;;;;;5037081;28;20060;-41
2022/08/30 11:00:45;;;;;;;1.02;0.60;;;23.40;54.20;;;;;;5037143;28;20041;-37
2022/08/30 11:03:32;;;;;;;2.03;0.50;;;23.40;53.90;;;;;;5005481;28;20099;-41
2022/08/30 11:06:20;;;;;;;1.77;0.65;;;23.50;53.60;;;;;;5042576;28;20029;-41
2022/08/30 11:09:05;;;;;;;2.28;0.57;;;23.60;51.40;;;;;;5040341;28;20508;-42
2022/08/30 11:11:31;;;;;;;1.02;0.40;;;23.60;51.00;;;;;;5038807;28;20048;-39
2022/08/30 11:14:01;;;;;;;2.35;0.40;;;23.60;52.60;;;;;;5041252;28;20235;-38
2022/08/30 11:16:39;;;;;;;3.45;0.50;;;23.60;51.50;;;;;;5040121;28;20108;-39
2022/08/30 11:19:34;;;;;;;2.83;0.63;;;23.70;51.80;;;;;;5033711;28;20119;-38
2022/08/30 11:22:14;;;;;;;2.95;0.60;;;23.80;50.10;;;;;;5038195;28;20416;-37
2022/08/30 11:24:58;;;;;;;3.63;0.50;;;23.80;51.00;;;;;;5036356;28;20053;-38
2022/08/30 11:27:48;;;;;;;2.40;0.40;;;23.70;49.30;;;;;;5036772;28;20391;-38
2022/08/30 11:30:26;;;;;;;2.72;0.60;;;23.70;48.40;;;;;;5034609;28;20580;-38
2022/08/30 11:33:09;;;;;;;1.83;0.30;;;23.70;49.40;;;;;;5032782;28;20469;-38
2022/08/30 11:35:51;;;;;;;3.70;0.60;;;23.80;48.60;;;;;;5037236;28;21733;-40
2022/08/30 11:38:25;;;;;;;1.73;0.40;;;23.80;48.30;;;;;;5039556;28;20036;-40
2022/08/30 11:41:07;;;;;;;1.73;0.63;;;23.90;49.00;;;;;;5041507;28;20075;-40
2022/08/30 11:43:37;;;;;;;0.70;0.50;;;24.00;47.80;;;;;;5047048;28;20094;-38
2022/08/30 11:46:24;;;;;;;2.30;0.50;;;24.10;48.70;;;;;;5036031;28;20143;-39
2022/08/30 11:48:54;;;;;;;2.03;0.40;;;24.20;47.70;;;;;;5036918;28;20047;-35
2022/08/30 11:51:51;;;;;;;4.63;0.50;;;24.30;47.70;;;;;;5039813;28;20132;-35
2022/08/30 11:54:48;;;;;;;1.00;0.38;;;24.40;45.60;;;;;;5035535;28;20194;-35
2022/08/30 11:57:40;;;;;;;2.88;0.60;;;24.40;44.90;;;;;;5037075;28;20455;-34
2022/08/30 12:00:33;;;;;;;2.33;0.70;;;24.50;46.70;;;;;;5035378;28;20036;-38
2022/08/30 12:03:27;;;;;;;2.35;0.70;;;24.60;45.30;;;;;;5040153;28;20380;-36
2022/08/30 12:06:14;;;;;;;1.20;0.47;;;24.70;45.80;;;;;;5045540;28;20037;-36
2022/08/30 12:08:46;;;;;;;3.47;0.55;;;24.80;46.00;;;;;;5037205;28;20037;-36
2022/08/30 12:11:12;;;;;;;2.45;0.55;;;25.10;45.70;;;;;;5036474;28;20503;-35
2022/08/30 12:13:41;;;;;;;1.83;0.60;;;25.30;45.10;;;;;;5036757;28;20051;-36
2022/08/30 12:16:10;;;;;;;4.97;0.55;;;25.40;43.90;;;;;;5039574;28;20394;-35
2022/08/30 12:18:42;;;;;;;3.97;0.93;;;25.50;43.90;;;;;;5036005;28;20119;-36
2022/08/30 12:21:17;;;;;;;1.23;0.50;;;25.70;43.80;;;;;;5036972;28;20049;-36
2022/08/30 12:24:10;;;;;;;2.47;0.50;;;25.80;43.80;;;;;;5037950;28;20048;-36
2022/08/30 12:26:45;;;;;;;2.40;0.50;;;25.90;43.20;;;;;;5034409;28;20049;-36
2022/08/30 12:29:19;;;;;;;0.88;0.40;;;26.00;43.70;;;;;;5036490;28;20041;-35
2022/08/30 12:31:55;;;;;;;2.90;0.50;;;26.10;43.10;;;;;;5035802;28;20128;-35
2022/08/30 12:34:30;;;;;;;2.17;0.50;;;26.10;41.30;;;;;;5039823;28;20049;-36
2022/08/30 12:37:03;;;;;;;2.28;0.57;;;26.00;42.20;;;;;;5043008;28;20049;-42
2022/08/30 12:39:33;;;;;;;2.38;0.50;;;26.10;42.10;;;;;;5033519;28;20029;-42
2022/08/30 12:42:17;;;;;;;1.50;0.60;;;26.20;42.00;;;;;;5044652;28;20108;-39
2022/08/30 12:44:46;;;;;;;0.90;0.40;;;26.40;41.20;;;;;;5009018;28;20048;-40
2022/08/30 12:47:16;;;;;;;1.75;0.40;;;26.60;41.00;;;;;;5038664;28;20044;-41
2022/08/30 12:49:45;;;;;;;1.13;0.43;;;26.70;40.50;;;;;;5033505;28;20490;-42
2022/08/30 12:52:22;;;;;;;3.05;0.80;;;26.70;40.20;;;;;;5039430;28;20507;-40
2022/08/30 12:54:49;;;;;;;2.00;0.70;;;26.80;39.90;;;;;;5040911;28;20045;-42
2022/08/30 12:57:41;;;;;;;2.28;0.77;;;26.80;39.60;;;;;;5041096;28;20394;-41
2022/08/30 13:00:29;;;;;;;1.85;0.65;;;26.90;38.90;;;;;;5035260;28;20044;-39
2022/08/30 13:03:00;;;;;;;3.10;0.60;;;27.00;38.80;;;;;;5040034;28;20486;-44
2022/08/30 13:05:31;;;;;;;0.95;0.60;;;27.30;39.00;;;;;;5041044;28;20036;-42
2022/08/30 13:08:19;;;;;;;2.47;0.50;;;27.50;38.50;;;;;;5040799;28;20126;-42
2022/08/30 13:11:01;;;;;;;2.55;0.55;;;28.00;37.60;;;;;;5036629;28;20417;-42
2022/08/30 13:13:38;;;;;;;3.00;0.68;;;28.40;36.60;;;;;;5035799;28;20743;-44